sensor_id;sensor_type;location;lat;lon;timestamp;temperature;humidity
24232;DHT22;12364;47.810;8.810;2022-07-06T03:47:15;20.20;79.60
24232;DHT22;12364;47.810;8.810;2022-07-06T03:49:42;20.20;78.90
24232;DHT22;12364;47.810;8.810;2022-07-06T03:52:09;20.10;79.20
24232;DHT22;12364;47.810;8.810;2022-07-06T03:54:36;20.10;79.30
24232;DHT22;12364;47.810;8.810;2022-07-06T03:57:03;20.10;79.50
24232;DHT22;12364;47.810;8.810;2022-07-06T03:59:30;20.10;79.80
24232;DHT22;12364;47.810;8.810;2022-07-06T04:01:57;20.10;79.30
24232;DHT22;12364;47.810;8.810;2022-07-06T04:04:24;20.10;79.60
24232;DHT22;12364;47.810;8.810;2022-07-06T04:06:52;20.00;79.10
24232;DHT22;12364;47.810;8.810;2022-07-06T04:09:18;20.00;79.60
24232;DHT22;12364;47.810;8.810;2022-07-06T04:11:45;20.00;79.10
24232;DHT22;12364;47.810;8.810;2022-07-06T04:14:12;20.00;79.40
24232;DHT22;12364;47.810;8.810;2022-07-06T04:16:39;20.00;79.60
24232;DHT22;12364;47.810;8.810;2022-07-06T04:19:07;20.00;80.30
24232;DHT22;12364;47.810;8.810;2022-07-06T04:21:34;20.00;80.10
24232;DHT22;12364;47.810;8.810;2022-07-06T04:24:01;20.00;79.70
24232;DHT22;12364;47.810;8.810;2022-07-06T04:26:28;19.90;79.70
24232;DHT22;12364;47.810;8.810;2022-07-06T04:28:55;19.90;80.50
24232;DHT22;12364;47.810;8.810;2022-07-06T04:31:22;19.80;80.60
24232;DHT22;12364;47.810;8.810;2022-07-06T04:33:49;19.80;80.50
24232;DHT22;12364;47.810;8.810;2022-07-06T04:36:17;19.80;80.90
24232;DHT22;12364;47.810;8.810;2022-07-06T04:38:44;19.80;81.00
24232;DHT22;12364;47.810;8.810;2022-07-06T04:41:14;19.90;81.00
24232;DHT22;12364;47.810;8.810;2022-07-06T04:43:41;19.80;81.00
24232;DHT22;12364;47.810;8.810;2022-07-06T04:46:10;19.80;80.80
24232;DHT22;12364;47.810;8.810;2022-07-06T04:48:37;19.90;80.90
24232;DHT22;12364;47.810;8.810;2022-07-06T04:51:06;19.90;81.00
24232;DHT22;12364;47.810;8.810;2022-07-06T04:53:33;19.90;80.60
24232;DHT22;12364;47.810;8.810;2022-07-06T04:56:00;20.00;80.20
24232;DHT22;12364;47.810;8.810;2022-07-06T04:58:27;20.00;81.30
24232;DHT22;12364;47.810;8.810;2022-07-06T05:00:54;20.00;79.80
24232;DHT22;12364;47.810;8.810;2022-07-06T05:03:22;20.00;82.50
24232;DHT22;12364;47.810;8.810;2022-07-06T05:05:49;20.00;81.50
24232;DHT22;12364;47.810;8.810;2022-07-06T05:08:20;20.00;81.60
24232;DHT22;12364;47.810;8.810;2022-07-06T05:10:48;20.00;80.80
24232;DHT22;12364;47.810;8.810;2022-07-06T05:13:15;20.00;80.60
24232;DHT22;12364;47.810;8.810;2022-07-06T05:15:42;20.10;79.80
24232;DHT22;12364;47.810;8.810;2022-07-06T05:18:09;20.10;80.10
24232;DHT22;12364;47.810;8.810;2022-07-06T05:20:36;20.20;79.90
24232;DHT22;12364;47.810;8.810;2022-07-06T05:23:03;20.20;79.90
24232;DHT22;12364;47.810;8.810;2022-07-06T05:25:30;20.20;80.10
24232;DHT22;12364;47.810;8.810;2022-07-06T05:27:58;20.30;80.00
24232;DHT22;12364;47.810;8.810;2022-07-06T05:30:26;20.30;79.60
24232;DHT22;12364;47.810;8.810;2022-07-06T05:32:53;20.40;79.20
24232;DHT22;12364;47.810;8.810;2022-07-06T05:35:20;20.40;78.90
24232;DHT22;12364;47.810;8.810;2022-07-06T05:38:07;20.40;79.40
24232;DHT22;12364;47.810;8.810;2022-07-06T05:40:34;20.40;78.70
24232;DHT22;12364;47.810;8.810;2022-07-06T05:43:01;20.40;79.00
24232;DHT22;12364;47.810;8.810;2022-07-06T05:45:28;20.40;78.80
24232;DHT22;12364;47.810;8.810;2022-07-06T05:47:56;20.40;79.30
24232;DHT22;12364;47.810;8.810;2022-07-06T05:50:41;20.40;79.20
24232;DHT22;12364;47.810;8.810;2022-07-06T05:53:08;20.40;79.00
24232;DHT22;12364;47.810;8.810;2022-07-06T05:55:45;20.50;79.50
24232;DHT22;12364;47.810;8.810;2022-07-06T05:58:12;20.50;79.50
24232;DHT22;12364;47.810;8.810;2022-07-06T06:00:39;20.50;79.40
24232;DHT22;12364;47.810;8.810;2022-07-06T06:03:07;20.60;79.40
24232;DHT22;12364;47.810;8.810;2022-07-06T06:05:34;20.60;79.40
24232;DHT22;12364;47.810;8.810;2022-07-06T06:08:01;20.70;79.40
24232;DHT22;12364;47.810;8.810;2022-07-06T06:10:28;20.70;79.70
24232;DHT22;12364;47.810;8.810;2022-07-06T06:12:55;20.70;79.50
24232;DHT22;12364;47.810;8.810;2022-07-06T06:15:22;20.80;79.20
24232;DHT22;12364;47.810;8.810;2022-07-06T06:17:49;20.80;78.90
24232;DHT22;12364;47.810;8.810;2022-07-06T06:20:17;20.80;78.90
24232;DHT22;12364;47.810;8.810;2022-07-06T06:22:44;20.90;79.50
24232;DHT22;12364;47.810;8.810;2022-07-06T06:25:15;20.90;79.90
24232;DHT22;12364;47.810;8.810;2022-07-06T06:27:43;21.00;80.10
24232;DHT22;12364;47.810;8.810;2022-07-06T06:30:10;20.90;80.00
24232;DHT22;12364;47.810;8.810;2022-07-06T06:32:38;21.00;79.10
24232;DHT22;12364;47.810;8.810;2022-07-06T06:35:05;21.00;79.30
24232;DHT22;12364;47.810;8.810;2022-07-06T06:37:33;21.00;80.00
24232;DHT22;12364;47.810;8.810;2022-07-06T06:40:01;21.10;80.00
24232;DHT22;12364;47.810;8.810;2022-07-06T06:42:29;21.00;80.00
24232;DHT22;12364;47.810;8.810;2022-07-06T06:44:56;21.00;80.30
24232;DHT22;12364;47.810;8.810;2022-07-06T06:47:23;21.10;80.30
24232;DHT22;12364;47.810;8.810;2022-07-06T06:49:50;21.00;78.90
24232;DHT22;12364;47.810;8.810;2022-07-06T06:52:17;21.10;79.20
24232;DHT22;12364;47.810;8.810;2022-07-06T06:55:04;21.10;79.50
24232;DHT22;12364;47.810;8.810;2022-07-06T06:57:31;21.10;78.70
24232;DHT22;12364;47.810;8.810;2022-07-06T06:59:58;21.20;79.50
24232;DHT22;12364;47.810;8.810;2022-07-06T07:02:25;21.30;79.70
24232;DHT22;12364;47.810;8.810;2022-07-06T07:04:52;21.30;79.00
24232;DHT22;12364;47.810;8.810;2022-07-06T07:07:19;21.40;78.60
24232;DHT22;12364;47.810;8.810;2022-07-06T07:09:46;21.40;78.20
24232;DHT22;12364;47.810;8.810;2022-07-06T07:12:13;21.40;78.30
24232;DHT22;12364;47.810;8.810;2022-07-06T07:14:41;21.30;79.10
24232;DHT22;12364;47.810;8.810;2022-07-06T07:17:09;21.30;79.60
24232;DHT22;12364;47.810;8.810;2022-07-06T07:19:37;21.30;79.60
24232;DHT22;12364;47.810;8.810;2022-07-06T07:22:04;21.40;80.30
24232;DHT22;12364;47.810;8.810;2022-07-06T07:24:31;21.50;80.20
24232;DHT22;12364;47.810;8.810;2022-07-06T07:26:59;21.60;79.60
24232;DHT22;12364;47.810;8.810;2022-07-06T07:29:26;21.70;79.20
24232;DHT22;12364;47.810;8.810;2022-07-06T07:31:53;21.70;79.90
24232;DHT22;12364;47.810;8.810;2022-07-06T07:34:20;21.80;80.00
24232;DHT22;12364;47.810;8.810;2022-07-06T07:36:47;21.90;80.00
24232;DHT22;12364;47.810;8.810;2022-07-06T07:39:14;21.90;79.70
24232;DHT22;12364;47.810;8.810;2022-07-06T07:41:41;21.90;79.10
24232;DHT22;12364;47.810;8.810;2022-07-06T07:44:09;22.00;79.70
24232;DHT22;12364;47.810;8.810;2022-07-06T07:46:36;22.00;79.60
24232;DHT22;12364;47.810;8.810;2022-07-06T07:49:03;22.00;79.60
24232;DHT22;12364;47.810;8.810;2022-07-06T07:51:30;22.00;79.40
24232;DHT22;12364;47.810;8.810;2022-07-06T07:53:57;22.10;80.30
24232;DHT22;12364;47.810;8.810;2022-07-06T07:56:24;22.20;80.00
24232;DHT22;12364;47.810;8.810;2022-07-06T07:58:51;22.20;79.30
24232;DHT22;12364;47.810;8.810;2022-07-06T08:01:18;22.20;79.60
24232;DHT22;12364;47.810;8.810;2022-07-06T08:03:45;22.20;80.70
24232;DHT22;12364;47.810;8.810;2022-07-06T08:06:12;22.30;81.20
24232;DHT22;12364;47.810;8.810;2022-07-06T08:08:39;22.30;80.80
24232;DHT22;12364;47.810;8.810;2022-07-06T08:11:06;22.40;80.10
24232;DHT22;12364;47.810;8.810;2022-07-06T08:13:45;22.50;79.70
24232;DHT22;12364;47.810;8.810;2022-07-06T08:16:12;22.50;78.80
24232;DHT22;12364;47.810;8.810;2022-07-06T08:18:39;22.50;79.50
24232;DHT22;12364;47.810;8.810;2022-07-06T08:21:07;22.60;79.40
24232;DHT22;12364;47.810;8.810;2022-07-06T08:23:52;22.60;77.90
24232;DHT22;12364;47.810;8.810;2022-07-06T08:26:20;22.60;78.00
24232;DHT22;12364;47.810;8.810;2022-07-06T08:28:47;22.10;77.60
24232;DHT22;12364;47.810;8.810;2022-07-06T08:31:14;22.70;78.40
24232;DHT22;12364;47.810;8.810;2022-07-06T08:34:01;22.70;78.50
24232;DHT22;12364;47.810;8.810;2022-07-06T08:36:29;22.70;76.40
24232;DHT22;12364;47.810;8.810;2022-07-06T08:38:56;22.80;76.90
24232;DHT22;12364;47.810;8.810;2022-07-06T08:41:24;22.80;77.40
24232;DHT22;12364;47.810;8.810;2022-07-06T08:43:52;22.70;77.70
24232;DHT22;12364;47.810;8.810;2022-07-06T08:46:20;22.80;77.90
24232;DHT22;12364;47.810;8.810;2022-07-06T08:48:47;22.90;76.20
24232;DHT22;12364;47.810;8.810;2022-07-06T08:51:15;22.90;75.60
24232;DHT22;12364;47.810;8.810;2022-07-06T08:53:42;23.00;75.30
24232;DHT22;12364;47.810;8.810;2022-07-06T08:56:09;23.00;76.60
24232;DHT22;12364;47.810;8.810;2022-07-06T08:58:37;23.10;75.70
24232;DHT22;12364;47.810;8.810;2022-07-06T09:01:10;23.20;76.60
24232;DHT22;12364;47.810;8.810;2022-07-06T09:03:41;23.20;75.30
24232;DHT22;12364;47.810;8.810;2022-07-06T09:06:08;23.30;74.30
24232;DHT22;12364;47.810;8.810;2022-07-06T09:08:35;23.30;74.10
24232;DHT22;12364;47.810;8.810;2022-07-06T09:11:06;23.40;73.80
24232;DHT22;12364;47.810;8.810;2022-07-06T09:13:33;23.40;73.40
24232;DHT22;12364;47.810;8.810;2022-07-06T09:16:10;23.40;72.80
24232;DHT22;12364;47.810;8.810;2022-07-06T09:18:57;23.40;73.20
24232;DHT22;12364;47.810;8.810;2022-07-06T09:21:25;23.50;72.30
24232;DHT22;12364;47.810;8.810;2022-07-06T09:23:53;23.50;73.50
24232;DHT22;12364;47.810;8.810;2022-07-06T09:26:21;23.60;73.80
24232;DHT22;12364;47.810;8.810;2022-07-06T09:28:48;23.60;73.10
24232;DHT22;12364;47.810;8.810;2022-07-06T09:31:15;23.70;73.20
24232;DHT22;12364;47.810;8.810;2022-07-06T09:33:55;23.70;73.00
24232;DHT22;12364;47.810;8.810;2022-07-06T09:41:47;23.90;74.40
24232;DHT22;12364;47.810;8.810;2022-07-06T09:44:18;24.00;73.10
24232;DHT22;12364;47.810;8.810;2022-07-06T09:46:46;24.00;73.30
24232;DHT22;12364;47.810;8.810;2022-07-06T09:49:16;24.00;73.20
24232;DHT22;12364;47.810;8.810;2022-07-06T09:51:44;24.00;72.80
24232;DHT22;12364;47.810;8.810;2022-07-06T09:54:11;24.00;72.90
24232;DHT22;12364;47.810;8.810;2022-07-06T09:56:38;24.00;73.30
24232;DHT22;12364;47.810;8.810;2022-07-06T09:59:11;24.00;73.10
24232;DHT22;12364;47.810;8.810;2022-07-06T10:01:39;24.00;72.10
24232;DHT22;12364;47.810;8.810;2022-07-06T10:04:06;24.10;73.20
24232;DHT22;12364;47.810;8.810;2022-07-06T10:06:34;24.20;74.20
24232;DHT22;12364;47.810;8.810;2022-07-06T10:09:02;24.20;73.50
24232;DHT22;12364;47.810;8.810;2022-07-06T10:11:49;24.30;72.20
24232;DHT22;12364;47.810;8.810;2022-07-06T10:14:38;24.40;72.50
24232;DHT22;12364;47.810;8.810;2022-07-06T10:17:03;24.40;72.80
24232;DHT22;12364;47.810;8.810;2022-07-06T10:19:32;24.40;72.80
24232;DHT22;12364;47.810;8.810;2022-07-06T10:22:00;24.40;71.90
24232;DHT22;12364;47.810;8.810;2022-07-06T10:24:28;24.50;72.50
24232;DHT22;12364;47.810;8.810;2022-07-06T10:26:55;24.60;73.20
24232;DHT22;12364;47.810;8.810;2022-07-06T10:29:23;24.70;72.70
24232;DHT22;12364;47.810;8.810;2022-07-06T10:31:50;24.80;70.80
24232;DHT22;12364;47.810;8.810;2022-07-06T10:34:18;24.80;70.50
24232;DHT22;12364;47.810;8.810;2022-07-06T10:36:52;24.70;71.40
24232;DHT22;12364;47.810;8.810;2022-07-06T10:39:33;24.70;70.30
24232;DHT22;12364;47.810;8.810;2022-07-06T10:45:05;24.80;70.70
24232;DHT22;12364;47.810;8.810;2022-07-06T10:47:32;24.80;71.90
24232;DHT22;12364;47.810;8.810;2022-07-06T10:50:00;24.70;70.30
24232;DHT22;12364;47.810;8.810;2022-07-06T10:55:34;24.70;70.80
24232;DHT22;12364;47.810;8.810;2022-07-06T10:58:00;24.70;71.20
24232;DHT22;12364;47.810;8.810;2022-07-06T11:05:59;24.80;71.10
24232;DHT22;12364;47.810;8.810;2022-07-06T11:11:13;25.00;71.20
24232;DHT22;12364;47.810;8.810;2022-07-06T11:13:54;25.10;70.20
24232;DHT22;12364;47.810;8.810;2022-07-06T11:16:23;25.10;70.30
24232;DHT22;12364;47.810;8.810;2022-07-06T11:24:08;25.30;69.00
24232;DHT22;12364;47.810;8.810;2022-07-06T11:26:36;25.30;69.40
24232;DHT22;12364;47.810;8.810;2022-07-06T11:29:07;25.30;67.40
24232;DHT22;12364;47.810;8.810;2022-07-06T11:31:35;25.30;67.50
24232;DHT22;12364;47.810;8.810;2022-07-06T11:34:04;25.40;69.40
24232;DHT22;12364;47.810;8.810;2022-07-06T11:36:31;25.50;68.70
24232;DHT22;12364;47.810;8.810;2022-07-06T11:39:04;25.50;68.80
24232;DHT22;12364;47.810;8.810;2022-07-06T11:41:34;25.50;67.10
24232;DHT22;12364;47.810;8.810;2022-07-06T11:44:02;25.40;66.70
24232;DHT22;12364;47.810;8.810;2022-07-06T11:46:29;25.40;67.90
24232;DHT22;12364;47.810;8.810;2022-07-06T11:48:58;25.40;68.30
24232;DHT22;12364;47.810;8.810;2022-07-06T11:51:27;25.40;67.00
24232;DHT22;12364;47.810;8.810;2022-07-06T11:53:56;25.50;68.40
24232;DHT22;12364;47.810;8.810;2022-07-06T11:56:23;25.60;67.30
24232;DHT22;12364;47.810;8.810;2022-07-06T11:58:55;25.70;66.00
24232;DHT22;12364;47.810;8.810;2022-07-06T12:01:23;25.80;67.10
24232;DHT22;12364;47.810;8.810;2022-07-06T12:03:51;25.80;68.00
24232;DHT22;12364;47.810;8.810;2022-07-06T12:06:22;25.90;66.90
24232;DHT22;12364;47.810;8.810;2022-07-06T12:08:53;25.90;67.00
24232;DHT22;12364;47.810;8.810;2022-07-06T12:13:50;26.00;68.20
24232;DHT22;12364;47.810;8.810;2022-07-06T12:16:18;26.00;67.50
24232;DHT22;12364;47.810;8.810;2022-07-06T12:18:46;25.90;67.20
24232;DHT22;12364;47.810;8.810;2022-07-06T12:21:15;25.80;66.60
24232;DHT22;12364;47.810;8.810;2022-07-06T12:23:44;25.80;66.10
24232;DHT22;12364;47.810;8.810;2022-07-06T12:26:12;25.80;67.40
24232;DHT22;12364;47.810;8.810;2022-07-06T12:28:40;25.80;66.40
24232;DHT22;12364;47.810;8.810;2022-07-06T12:31:07;25.80;65.30
24232;DHT22;12364;47.810;8.810;2022-07-06T12:33:34;25.80;66.20
24232;DHT22;12364;47.810;8.810;2022-07-06T12:36:11;25.90;67.60
24232;DHT22;12364;47.810;8.810;2022-07-06T12:38:43;25.90;67.10
24232;DHT22;12364;47.810;8.810;2022-07-06T12:41:23;25.90;67.30
24232;DHT22;12364;47.810;8.810;2022-07-06T12:43:59;25.90;67.70
24232;DHT22;12364;47.810;8.810;2022-07-06T12:46:26;26.00;67.60
24232;DHT22;12364;47.810;8.810;2022-07-06T12:48:55;26.00;69.20
24232;DHT22;12364;47.810;8.810;2022-07-06T12:51:22;26.00;67.50
24232;DHT22;12364;47.810;8.810;2022-07-06T12:53:49;26.00;66.40
24232;DHT22;12364;47.810;8.810;2022-07-06T12:56:16;26.00;67.00
24232;DHT22;12364;47.810;8.810;2022-07-06T12:58:56;26.10;65.50
24232;DHT22;12364;47.810;8.810;2022-07-06T13:01:23;26.10;65.70
24232;DHT22;12364;47.810;8.810;2022-07-06T13:03:55;26.20;69.70
24232;DHT22;12364;47.810;8.810;2022-07-06T13:06:34;26.20;68.60
24232;DHT22;12364;47.810;8.810;2022-07-06T13:09:01;26.30;67.60
24232;DHT22;12364;47.810;8.810;2022-07-06T13:11:28;26.40;67.60
24232;DHT22;12364;47.810;8.810;2022-07-06T13:13:55;26.40;69.10
24232;DHT22;12364;47.810;8.810;2022-07-06T13:16:23;26.40;66.10
24232;DHT22;12364;47.810;8.810;2022-07-06T13:18:54;26.40;64.30
24232;DHT22;12364;47.810;8.810;2022-07-06T13:21:21;26.40;64.80
24232;DHT22;12364;47.810;8.810;2022-07-06T13:23:48;26.40;64.90
24232;DHT22;12364;47.810;8.810;2022-07-06T13:26:15;26.40;65.40
24232;DHT22;12364;47.810;8.810;2022-07-06T13:28:42;26.40;66.30
24232;DHT22;12364;47.810;8.810;2022-07-06T13:31:09;26.50;66.30
24232;DHT22;12364;47.810;8.810;2022-07-06T13:33:38;26.50;68.30
24232;DHT22;12364;47.810;8.810;2022-07-06T13:36:05;26.60;67.90
24232;DHT22;12364;47.810;8.810;2022-07-06T13:38:33;26.60;68.90
24232;DHT22;12364;47.810;8.810;2022-07-06T13:41:00;26.60;67.40
24232;DHT22;12364;47.810;8.810;2022-07-06T13:43:27;26.60;67.60
24232;DHT22;12364;47.810;8.810;2022-07-06T13:46:06;26.60;67.10
24232;DHT22;12364;47.810;8.810;2022-07-06T13:48:34;26.60;68.00
24232;DHT22;12364;47.810;8.810;2022-07-06T13:51:01;26.60;67.00
24232;DHT22;12364;47.810;8.810;2022-07-06T13:53:28;26.60;66.30
24232;DHT22;12364;47.810;8.810;2022-07-06T13:55:55;26.60;65.20
24232;DHT22;12364;47.810;8.810;2022-07-06T13:58:22;26.60;65.10
24232;DHT22;12364;47.810;8.810;2022-07-06T14:00:49;26.70;65.50
24232;DHT22;12364;47.810;8.810;2022-07-06T14:03:16;26.80;68.20
24232;DHT22;12364;47.810;8.810;2022-07-06T14:05:43;26.80;67.30
24232;DHT22;12364;47.810;8.810;2022-07-06T14:08:12;26.80;64.00
24232;DHT22;12364;47.810;8.810;2022-07-06T14:10:39;26.70;64.10
24232;DHT22;12364;47.810;8.810;2022-07-06T14:13:06;26.70;64.40
24232;DHT22;12364;47.810;8.810;2022-07-06T14:15:33;26.70;63.90
24232;DHT22;12364;47.810;8.810;2022-07-06T14:18:00;26.70;65.10
24232;DHT22;12364;47.810;8.810;2022-07-06T14:20:28;26.70;65.70
24232;DHT22;12364;47.810;8.810;2022-07-06T14:22:55;26.70;64.90
24232;DHT22;12364;47.810;8.810;2022-07-06T14:25:22;26.80;65.60
24232;DHT22;12364;47.810;8.810;2022-07-06T14:27:49;26.80;66.20
24232;DHT22;12364;47.810;8.810;2022-07-06T14:30:16;26.80;65.60
24232;DHT22;12364;47.810;8.810;2022-07-06T14:32:43;26.80;64.50
24232;DHT22;12364;47.810;8.810;2022-07-06T14:35:11;26.80;65.00
24232;DHT22;12364;47.810;8.810;2022-07-06T14:37:38;26.80;63.40
24232;DHT22;12364;47.810;8.810;2022-07-06T14:40:05;26.80;63.50
24232;DHT22;12364;47.810;8.810;2022-07-06T14:42:32;26.80;63.70
24232;DHT22;12364;47.810;8.810;2022-07-06T14:44:59;26.80;63.40
24232;DHT22;12364;47.810;8.810;2022-07-06T14:47:26;26.80;63.10
24232;DHT22;12364;47.810;8.810;2022-07-06T14:49:53;26.80;63.50
24232;DHT22;12364;47.810;8.810;2022-07-06T14:52:21;26.80;64.00
24232;DHT22;12364;47.810;8.810;2022-07-06T14:54:48;26.80;64.70
24232;DHT22;12364;47.810;8.810;2022-07-06T14:57:15;26.70;64.10
24232;DHT22;12364;47.810;8.810;2022-07-06T14:59:42;26.70;63.50
24232;DHT22;12364;47.810;8.810;2022-07-06T15:02:09;26.60;64.80
24232;DHT22;12364;47.810;8.810;2022-07-06T15:04:37;26.60;63.10
24232;DHT22;12364;47.810;8.810;2022-07-06T15:07:04;26.70;64.00
24232;DHT22;12364;47.810;8.810;2022-07-06T15:09:31;26.80;67.00
24232;DHT22;12364;47.810;8.810;2022-07-06T15:11:59;26.80;65.20
24232;DHT22;12364;47.810;8.810;2022-07-06T15:14:26;26.90;63.70
24232;DHT22;12364;47.810;8.810;2022-07-06T15:16:53;27.00;62.50
24232;DHT22;12364;47.810;8.810;2022-07-06T15:19:21;26.90;61.80
24232;DHT22;12364;47.810;8.810;2022-07-06T15:21:48;26.80;62.30
24232;DHT22;12364;47.810;8.810;2022-07-06T15:24:15;26.80;64.80
24232;DHT22;12364;47.810;8.810;2022-07-06T15:26:42;26.80;64.20
24232;DHT22;12364;47.810;8.810;2022-07-06T15:29:09;26.60;64.60
24232;DHT22;12364;47.810;8.810;2022-07-06T15:31:36;26.60;65.00
24232;DHT22;12364;47.810;8.810;2022-07-06T15:34:03;26.40;64.30
24232;DHT22;12364;47.810;8.810;2022-07-06T15:36:31;26.30;65.20
24232;DHT22;12364;47.810;8.810;2022-07-06T15:38:58;26.30;65.10
24232;DHT22;12364;47.810;8.810;2022-07-06T15:41:25;26.40;65.90
24232;DHT22;12364;47.810;8.810;2022-07-06T15:43:52;26.30;64.70
24232;DHT22;12364;47.810;8.810;2022-07-06T15:46:21;26.20;64.70
24232;DHT22;12364;47.810;8.810;2022-07-06T15:48:50;26.30;65.20
24232;DHT22;12364;47.810;8.810;2022-07-06T15:51:17;26.30;65.10
24232;DHT22;12364;47.810;8.810;2022-07-06T15:53:44;26.30;65.40
24232;DHT22;12364;47.810;8.810;2022-07-06T15:56:12;26.30;65.10
24232;DHT22;12364;47.810;8.810;2022-07-06T15:58:40;26.30;64.20
24232;DHT22;12364;47.810;8.810;2022-07-06T16:01:07;26.20;64.00
24232;DHT22;12364;47.810;8.810;2022-07-06T16:03:34;26.20;63.60
24232;DHT22;12364;47.810;8.810;2022-07-06T16:06:04;26.20;63.80
24232;DHT22;12364;47.810;8.810;2022-07-06T16:08:39;26.30;64.80
24232;DHT22;12364;47.810;8.810;2022-07-06T16:11:13;26.30;63.40
24232;DHT22;12364;47.810;8.810;2022-07-06T16:13:41;26.30;62.80
24232;DHT22;12364;47.810;8.810;2022-07-06T16:16:08;26.20;62.90
24232;DHT22;12364;47.810;8.810;2022-07-06T16:18:36;26.30;62.50
24232;DHT22;12364;47.810;8.810;2022-07-06T16:21:03;26.30;62.80
24232;DHT22;12364;47.810;8.810;2022-07-06T16:23:30;26.30;62.10
24232;DHT22;12364;47.810;8.810;2022-07-06T16:25:57;26.30;61.40
24232;DHT22;12364;47.810;8.810;2022-07-06T16:28:24;26.30;60.50
24232;DHT22;12364;47.810;8.810;2022-07-06T16:30:51;26.30;62.30
24232;DHT22;12364;47.810;8.810;2022-07-06T16:33:18;26.40;61.90
24232;DHT22;12364;47.810;8.810;2022-07-06T16:35:45;26.40;62.40
24232;DHT22;12364;47.810;8.810;2022-07-06T16:38:19;26.30;62.90
24232;DHT22;12364;47.810;8.810;2022-07-06T16:40:46;26.40;63.00
24232;DHT22;12364;47.810;8.810;2022-07-06T16:43:13;26.50;60.90
24232;DHT22;12364;47.810;8.810;2022-07-06T16:45:43;26.50;62.90
24232;DHT22;12364;47.810;8.810;2022-07-06T16:48:10;26.50;62.50
24232;DHT22;12364;47.810;8.810;2022-07-06T16:50:37;26.40;61.70
24232;DHT22;12364;47.810;8.810;2022-07-06T16:53:04;26.40;62.50
24232;DHT22;12364;47.810;8.810;2022-07-06T16:55:31;26.40;62.90
24232;DHT22;12364;47.810;8.810;2022-07-06T16:57:58;26.40;63.00
24232;DHT22;12364;47.810;8.810;2022-07-06T17:00:25;26.30;62.60
24232;DHT22;12364;47.810;8.810;2022-07-06T17:02:53;26.30;62.10
24232;DHT22;12364;47.810;8.810;2022-07-06T17:05:20;26.20;62.90
24232;DHT22;12364;47.810;8.810;2022-07-06T17:07:47;26.10;63.30
24232;DHT22;12364;47.810;8.810;2022-07-06T17:10:14;26.00;63.60
24232;DHT22;12364;47.810;8.810;2022-07-06T17:12:41;26.10;64.00
24232;DHT22;12364;47.810;8.810;2022-07-06T17:15:08;25.80;63.40
24232;DHT22;12364;47.810;8.810;2022-07-06T17:17:36;25.80;63.20
24232;DHT22;12364;47.810;8.810;2022-07-06T17:20:04;25.70;63.60
24232;DHT22;12364;47.810;8.810;2022-07-06T17:22:31;25.60;63.80
24232;DHT22;12364;47.810;8.810;2022-07-06T17:24:58;25.50;64.10
24232;DHT22;12364;47.810;8.810;2022-07-06T17:27:25;25.50;63.80
24232;DHT22;12364;47.810;8.810;2022-07-06T17:29:52;25.50;64.20
24232;DHT22;12364;47.810;8.810;2022-07-06T17:32:19;25.40;63.90
24232;DHT22;12364;47.810;8.810;2022-07-06T17:34:47;25.30;64.80
24232;DHT22;12364;47.810;8.810;2022-07-06T17:37:14;25.20;65.00
24232;DHT22;12364;47.810;8.810;2022-07-06T17:39:42;25.20;65.60
24232;DHT22;12364;47.810;8.810;2022-07-06T17:42:09;25.20;65.80
24232;DHT22;12364;47.810;8.810;2022-07-06T17:44:36;25.10;65.70
24232;DHT22;12364;47.810;8.810;2022-07-06T17:47:04;25.10;65.90
24232;DHT22;12364;47.810;8.810;2022-07-06T17:49:31;25.00;65.70
24232;DHT22;12364;47.810;8.810;2022-07-06T17:51:59;24.80;66.00
24232;DHT22;12364;47.810;8.810;2022-07-06T17:54:26;24.70;66.20
24232;DHT22;12364;47.810;8.810;2022-07-06T17:56:53;24.70;66.50
24232;DHT22;12364;47.810;8.810;2022-07-06T17:59:21;24.60;66.20
24232;DHT22;12364;47.810;8.810;2022-07-06T18:01:48;24.70;66.30
24232;DHT22;12364;47.810;8.810;2022-07-06T18:04:15;24.70;66.50
24232;DHT22;12364;47.810;8.810;2022-07-06T18:06:42;24.60;66.60
24232;DHT22;12364;47.810;8.810;2022-07-06T18:09:09;24.60;66.70
24232;DHT22;12364;47.810;8.810;2022-07-06T18:11:36;24.60;66.20
24232;DHT22;12364;47.810;8.810;2022-07-06T18:14:03;24.50;66.60
24232;DHT22;12364;47.810;8.810;2022-07-06T18:16:30;24.50;67.30
24232;DHT22;12364;47.810;8.810;2022-07-06T18:18:57;24.50;67.40
24232;DHT22;12364;47.810;8.810;2022-07-06T18:21:24;24.60;67.50
24232;DHT22;12364;47.810;8.810;2022-07-06T18:23:52;24.60;67.60
24232;DHT22;12364;47.810;8.810;2022-07-06T18:26:19;24.50;67.40
24232;DHT22;12364;47.810;8.810;2022-07-06T18:28:46;24.50;67.00
24232;DHT22;12364;47.810;8.810;2022-07-06T18:31:13;24.60;67.30
24232;DHT22;12364;47.810;8.810;2022-07-06T18:33:41;24.50;67.10
24232;DHT22;12364;47.810;8.810;2022-07-06T18:36:08;24.50;67.20
24232;DHT22;12364;47.810;8.810;2022-07-06T18:38:35;24.50;67.00
24232;DHT22;12364;47.810;8.810;2022-07-06T18:41:03;24.30;67.30
24232;DHT22;12364;47.810;8.810;2022-07-06T18:43:30;24.10;66.70
24232;DHT22;12364;47.810;8.810;2022-07-06T18:45:57;24.00;67.90
24232;DHT22;12364;47.810;8.810;2022-07-06T18:48:25;24.10;68.70
24232;DHT22;12364;47.810;8.810;2022-07-06T18:50:52;24.10;68.00
24232;DHT22;12364;47.810;8.810;2022-07-06T18:53:19;23.90;67.20
24232;DHT22;12364;47.810;8.810;2022-07-06T18:55:47;23.90;67.10
24232;DHT22;12364;47.810;8.810;2022-07-06T18:58:14;23.80;67.20
24232;DHT22;12364;47.810;8.810;2022-07-06T19:00:41;23.90;66.50
24232;DHT22;12364;47.810;8.810;2022-07-06T19:03:08;23.90;66.30
24232;DHT22;12364;47.810;8.810;2022-07-06T19:05:35;23.80;66.60
24232;DHT22;12364;47.810;8.810;2022-07-06T19:08:02;23.90;67.20
24232;DHT22;12364;47.810;8.810;2022-07-06T19:10:29;23.90;67.00
24232;DHT22;12364;47.810;8.810;2022-07-06T19:12:57;23.80;67.10
24232;DHT22;12364;47.810;8.810;2022-07-06T19:15:24;23.80;67.10
24232;DHT22;12364;47.810;8.810;2022-07-06T19:17:51;23.60;66.40
24232;DHT22;12364;47.810;8.810;2022-07-06T19:20:21;23.60;67.80
24232;DHT22;12364;47.810;8.810;2022-07-06T19:22:48;23.70;68.40
24232;DHT22;12364;47.810;8.810;2022-07-06T19:25:15;23.70;68.70
24232;DHT22;12364;47.810;8.810;2022-07-06T19:27:44;23.70;68.10
24232;DHT22;12364;47.810;8.810;2022-07-06T19:30:12;23.80;67.80
24232;DHT22;12364;47.810;8.810;2022-07-06T19:32:40;23.70;67.90
24232;DHT22;12364;47.810;8.810;2022-07-06T19:35:07;23.60;67.50
24232;DHT22;12364;47.810;8.810;2022-07-06T19:37:35;23.40;67.30
24232;DHT22;12364;47.810;8.810;2022-07-06T19:40:02;23.30;66.50
24232;DHT22;12364;47.810;8.810;2022-07-06T19:42:29;23.30;66.40
24232;DHT22;12364;47.810;8.810;2022-07-06T19:44:56;23.20;66.60
24232;DHT22;12364;47.810;8.810;2022-07-06T19:47:23;23.10;66.70
24232;DHT22;12364;47.810;8.810;2022-07-06T19:49:51;23.00;66.70